Time;durP1;ratioP1;P1;durP2;ratioP2;P2;SDS_P1;SDS_P2;PMS_P1;PMS_P2;Temp;Humidity;BMP_temperature;BMP_pressure;BME280_temperature;BME280_humidity;BME280_pressure;Samples;Min_cycle;Max_cycle;Signal;HPM_P1;HPM_P2
2022/05/29 00:02:32;;;;;;;5.90;2.13;;;11.50;99.90;;;;;;4913612;29;20199;-80
2022/05/29 00:04:59;;;;;;;3.30;2.10;;;11.50;99.90;;;;;;4919496;29;20207;-79
2022/05/29 00:07:27;;;;;;;2.43;1.80;;;11.50;99.90;;;;;;4920469;29;20227;-80
2022/05/29 00:09:56;;;;;;;5.78;2.35;;;11.70;99.90;;;;;;4917435;29;20202;-80
2022/05/29 00:12:25;;;;;;;5.30;2.20;;;11.70;99.90;;;;;;4899670;29;20202;-79
2022/05/29 00:14:54;;;;;;;4.35;1.45;;;11.70;99.90;;;;;;4916680;29;20553;-80
2022/05/29 00:17:21;;;;;;;3.55;1.50;;;11.70;99.90;;;;;;4917699;29;20237;-80
2022/05/29 00:19:49;;;;;;;4.50;1.75;;;11.80;99.90;;;;;;4923044;29;20200;-80
2022/05/29 00:22:22;;;;;;;4.32;1.88;;;11.80;99.90;;;;;;4916837;29;20774;-80
2022/05/29 00:24:53;;;;;;;4.80;2.03;;;11.60;99.90;;;;;;4917985;29;20202;-80
2022/05/29 00:27:23;;;;;;;3.75;1.70;;;11.70;99.90;;;;;;4917515;29;20239;-80
2022/05/29 00:29:50;;;;;;;6.47;2.10;;;11.60;99.90;;;;;;4917115;29;20191;-80
2022/05/29 00:32:19;;;;;;;4.72;2.17;;;11.30;99.90;;;;;;4917008;29;20207;-80
2022/05/29 00:34:50;;;;;;;4.20;1.90;;;11.20;99.90;;;;;;4918305;29;20203;-80
2022/05/29 00:37:17;;;;;;;5.27;1.90;;;11.20;99.90;;;;;;4900311;29;20211;-80
2022/05/29 00:39:45;;;;;;;5.13;2.00;;;11.10;99.90;;;;;;4923827;29;20207;-79
2022/05/29 00:42:16;;;;;;;4.63;2.27;;;11.10;99.90;;;;;;4913443;29;20689;-81
2022/05/29 00:44:44;;;;;;;6.82;2.10;;;11.30;99.90;;;;;;4919755;29;20273;-82
2022/05/29 00:47:15;;;;;;;4.60;1.97;;;11.20;99.90;;;;;;4911296;29;20203;-82
2022/05/29 00:49:47;;;;;;;4.37;1.93;;;11.10;99.90;;;;;;4917921;29;20195;-81
2022/05/29 00:52:17;;;;;;;4.15;1.75;;;11.20;99.90;;;;;;4913697;29;20203;-81
2022/05/29 00:54:53;;;;;;;3.67;1.93;;;11.30;99.90;;;;;;4914843;29;20198;-80
2022/05/29 00:57:32;;;;;;;3.33;1.83;;;11.30;99.90;;;;;;4915777;29;20701;-79
2022/05/29 01:00:04;;;;;;;7.55;2.65;;;11.20;99.90;;;;;;4916688;29;20690;-79
2022/05/29 01:02:32;;;;;;;3.13;2.08;;;11.00;99.90;;;;;;4913675;29;20199;-80
2022/05/29 01:05:00;;;;;;;3.97;2.00;;;11.00;99.90;;;;;;4914175;29;20212;-79
2022/05/29 01:07:30;;;;;;;4.80;2.20;;;10.90;99.90;;;;;;4913349;29;20231;-79
2022/05/29 01:10:00;;;;;;;2.58;2.00;;;11.00;99.90;;;;;;4912926;29;20208;-81
2022/05/29 01:12:38;;;;;;;6.45;2.28;;;11.10;99.90;;;;;;4919454;29;20207;-81
2022/05/29 01:15:24;;;;;;;3.05;1.77;;;10.90;99.90;;;;;;4915349;29;20210;-81
2022/05/29 01:18:03;;;;;;;4.57;2.20;;;10.70;99.90;;;;;;4911661;29;20231;-81
2022/05/29 01:20:40;;;;;;;5.80;2.43;;;10.50;99.90;;;;;;4908273;29;20199;-81
2022/05/29 01:23:32;;;;;;;5.97;2.40;;;10.40;99.90;;;;;;4915375;29;20210;-82
2022/05/29 01:26:30;;;;;;;5.90;2.30;;;10.40;99.90;;;;;;4914667;29;20202;-81
2022/05/29 01:29:02;;;;;;;4.27;2.17;;;10.50;99.90;;;;;;4915623;29;20571;-81
2022/05/29 01:31:42;;;;;;;3.17;1.93;;;10.40;99.90;;;;;;4917861;29;20202;-81
2022/05/29 01:34:29;;;;;;;3.37;1.50;;;10.40;99.90;;;;;;4913855;29;20225;-81
2022/05/29 01:37:09;;;;;;;4.33;2.07;;;10.50;99.90;;;;;;4917024;29;20231;-79
2022/05/29 01:39:49;;;;;;;5.60;2.50;;;10.50;99.90;;;;;;4915716;29;20554;-79
2022/05/29 01:42:26;;;;;;;4.13;2.10;;;10.60;99.90;;;;;;4913354;29;20210;-79
2022/05/29 01:44:59;;;;;;;3.10;2.00;;;10.40;99.90;;;;;;4944780;23;20234;-79
2022/05/29 01:47:31;;;;;;;4.63;2.37;;;10.60;99.90;;;;;;4924556;29;20190;-79
2022/05/29 01:50:03;;;;;;;4.37;2.30;;;10.50;99.90;;;;;;4915094;29;20213;-79
2022/05/29 01:52:34;;;;;;;4.67;2.10;;;10.30;99.90;;;;;;4917586;29;20211;-79
2022/05/29 01:55:07;;;;;;;4.40;2.70;;;10.20;99.90;;;;;;4928553;28;20223;-79
2022/05/29 01:57:38;;;;;;;4.73;2.23;;;10.20;99.90;;;;;;4915338;29;20250;-79
2022/05/29 02:00:20;;;;;;;3.43;2.33;;;9.90;99.90;;;;;;4934909;29;20198;-79
2022/05/29 02:02:53;;;;;;;6.07;2.30;;;10.30;99.90;;;;;;4916721;29;20207;-80
2022/05/29 02:05:25;;;;;;;6.97;2.50;;;10.50;99.90;;;;;;4923621;29;20205;-79
2022/05/29 02:07:57;;;;;;;5.93;2.77;;;10.60;99.90;;;;;;4918937;29;20660;-79
2022/05/29 02:10:31;;;;;;;4.30;2.33;;;10.70;99.90;;;;;;4926078;29;20315;-79
2022/05/29 02:13:07;;;;;;;7.70;2.40;;;10.70;99.90;;;;;;4915146;28;20208;-79
2022/05/29 02:15:41;;;;;;;3.50;2.40;;;10.80;99.90;;;;;;4915610;29;20570;-79
2022/05/29 02:18:32;;;;;;;5.30;2.40;;;10.70;99.90;;;;;;4931881;29;20201;-79
2022/05/29 02:21:07;;;;;;;5.50;2.70;;;10.60;99.90;;;;;;4925579;29;20195;-79
2022/05/29 02:23:39;;;;;;;5.57;2.47;;;10.60;99.90;;;;;;4934996;28;20749;-79
2022/05/29 02:26:08;;;;;;;5.60;2.60;;;10.50;99.90;;;;;;4915002;29;20688;-79
2022/05/29 02:28:38;;;;;;;4.40;2.23;;;10.50;99.90;;;;;;4921616;29;20680;-79
2022/05/29 02:31:17;;;;;;;5.53;2.30;;;10.60;99.90;;;;;;4918249;29;20210;-79
2022/05/29 02:33:56;;;;;;;5.53;2.43;;;10.50;99.90;;;;;;4940829;28;20241;-79
2022/05/29 02:36:46;;;;;;;8.03;2.77;;;10.40;99.90;;;;;;4917578;29;20213;-79
2022/05/29 02:39:23;;;;;;;5.47;2.60;;;10.20;99.90;;;;;;4921849;29;20218;-79
2022/05/29 02:42:01;;;;;;;3.53;2.27;;;10.30;99.90;;;;;;4921392;29;20209;-79
2022/05/29 02:44:39;;;;;;;5.50;2.60;;;10.40;99.90;;;;;;4919727;29;20600;-78
2022/05/29 02:47:21;;;;;;;6.03;2.40;;;10.40;99.90;;;;;;4923814;29;20210;-79
2022/05/29 02:50:01;;;;;;;4.90;2.80;;;10.40;99.90;;;;;;4904209;29;20199;-79
2022/05/29 02:52:28;;;;;;;4.87;2.33;;;10.40;99.90;;;;;;4933365;29;20202;-79
2022/05/29 02:54:57;;;;;;;5.67;2.93;;;10.30;99.90;;;;;;4934082;28;20241;-79
2022/05/29 02:57:25;;;;;;;4.73;2.80;;;10.20;99.90;;;;;;4920954;29;20233;-79
2022/05/29 03:00:03;;;;;;;7.10;2.93;;;10.30;99.90;;;;;;4931977;29;20584;-79
2022/05/29 03:02:39;;;;;;;5.80;3.00;;;10.40;99.90;;;;;;4917929;29;20583;-78
2022/05/29 03:05:17;;;;;;;3.60;2.70;;;10.40;99.90;;;;;;4923575;29;21130;-78
2022/05/29 03:07:58;;;;;;;4.23;2.93;;;10.30;99.90;;;;;;4931685;29;20203;-79
2022/05/29 03:10:36;;;;;;;3.83;2.70;;;10.00;99.90;;;;;;4912946;29;20207;-79
2022/05/29 03:13:10;;;;;;;6.53;3.30;;;9.90;99.90;;;;;;4921926;28;20198;-79
2022/05/29 03:15:53;;;;;;;4.73;3.40;;;10.00;99.90;;;;;;4925410;29;20552;-78
2022/05/29 03:18:41;;;;;;;6.53;3.20;;;9.80;99.90;;;;;;4935434;29;20225;-79
2022/05/29 03:21:20;;;;;;;4.90;3.40;;;9.90;99.90;;;;;;4928416;29;20205;-79
2022/05/29 03:23:56;;;;;;;4.83;3.40;;;9.90;99.90;;;;;;4933608;29;20682;-79
2022/05/29 03:26:34;;;;;;;6.40;3.57;;;9.90;99.90;;;;;;4918565;29;20183;-79
2022/05/29 03:29:07;;;;;;;10.53;4.40;;;9.90;99.90;;;;;;4912867;29;20214;-78
2022/05/29 03:31:36;;;;;;;7.87;3.47;;;9.80;99.90;;;;;;4917278;29;20200;-79
2022/05/29 03:34:05;;;;;;;7.40;4.00;;;10.10;99.90;;;;;;4951755;28;20225;-79
2022/05/29 03:36:46;;;;;;;8.03;3.90;;;10.10;99.90;;;;;;4938829;29;20194;-79
2022/05/29 03:39:13;;;;;;;5.20;3.70;;;10.10;99.90;;;;;;4921109;29;20278;-79
2022/05/29 03:41:45;;;;;;;6.10;3.80;;;10.30;99.90;;;;;;4937459;29;20209;-79
2022/05/29 03:44:13;;;;;;;9.00;4.10;;;10.50;99.90;;;;;;4937173;29;20710;-79
2022/05/29 03:46:40;;;;;;;4.87;4.00;;;10.60;99.90;;;;;;4936787;29;20210;-79
2022/05/29 03:49:09;;;;;;;7.03;4.10;;;10.60;99.90;;;;;;4936465;29;20202;-79
2022/05/29 03:51:37;;;;;;;5.97;3.87;;;10.50;99.90;;;;;;4935809;29;20691;-79
2022/05/29 03:54:06;;;;;;;5.17;4.13;;;10.30;99.90;;;;;;4942981;28;20700;-79
2022/05/29 03:56:33;;;;;;;7.63;4.63;;;10.10;99.90;;;;;;4923855;29;20201;-80
2022/05/29 03:59:01;;;;;;;9.53;4.50;;;10.20;99.90;;;;;;4932257;29;20225;-78
2022/05/29 04:01:31;;;;;;;7.20;4.47;;;10.20;99.90;;;;;;4923869;29;20206;-77
2022/05/29 04:03:59;;;;;;;9.77;4.80;;;10.40;99.90;;;;;;4944786;29;20668;-76
2022/05/29 04:06:36;;;;;;;11.70;4.93;;;10.20;99.90;;;;;;4920886;29;20214;-78
2022/05/29 04:12:07;;;;;;;9.03;5.47;;;10.20;99.90;;;;;;4915187;29;20688;-77
2022/05/29 04:14:41;;;;;;;8.07;5.90;;;9.90;99.90;;;;;;4928253;29;20230;-77
2022/05/29 04:17:09;;;;;;;11.47;5.90;;;9.80;99.90;;;;;;4938777;29;20205;-77
2022/05/29 04:19:37;;;;;;;9.40;5.80;;;10.10;99.90;;;;;;4931241;29;20685;-77
2022/05/29 04:22:12;;;;;;;8.87;5.63;;;9.80;99.90;;;;;;4933713;29;20222;-78
2022/05/29 04:24:39;;;;;;;10.20;5.83;;;9.70;99.90;;;;;;4933774;29;20222;-77
2022/05/29 04:27:09;;;;;;;6.37;4.83;;;9.70;99.90;;;;;;4928605;29;20214;-77
2022/05/29 04:29:37;;;;;;;11.23;6.37;;;9.80;99.90;;;;;;4923949;29;20221;-77
2022/05/29 04:34:53;;;;;;;8.57;5.90;;;9.80;99.90;;;;;;4944267;28;20214;-77
2022/05/29 04:37:22;;;;;;;9.67;6.10;;;10.00;99.90;;;;;;4932555;29;20208;-77
2022/05/29 04:39:50;;;;;;;10.90;5.83;;;9.80;99.90;;;;;;4913422;29;20582;-77
2022/05/29 04:42:17;;;;;;;8.27;5.70;;;10.00;99.90;;;;;;4920286;29;20199;-76
2022/05/29 04:44:44;;;;;;;7.83;5.83;;;10.00;99.90;;;;;;4919896;29;20237;-76
2022/05/29 04:47:12;;;;;;;6.73;5.27;;;9.90;99.90;;;;;;4919824;29;20206;-77
2022/05/29 04:49:42;;;;;;;8.00;5.47;;;9.80;99.90;;;;;;4922407;29;20209;-77
2022/05/29 04:52:10;;;;;;;7.70;4.63;;;9.70;99.90;;;;;;4925909;29;20599;-77
2022/05/29 04:54:40;;;;;;;7.73;5.00;;;9.90;99.90;;;;;;4913078;29;20226;-78
2022/05/29 04:57:08;;;;;;;6.83;4.70;;;10.10;99.90;;;;;;4922262;29;20207;-78
2022/05/29 04:59:36;;;;;;;7.83;4.87;;;10.30;99.90;;;;;;4937446;29;20213;-77
2022/05/29 05:02:04;;;;;;;7.53;4.73;;;10.40;99.90;;;;;;4935294;29;20216;-78
2022/05/29 05:04:32;;;;;;;5.27;4.03;;;10.40;99.90;;;;;;4934255;28;20226;-77
2022/05/29 05:07:01;;;;;;;6.30;4.30;;;10.50;99.90;;;;;;4940760;29;20217;-78
2022/05/29 05:09:37;;;;;;;7.87;4.10;;;10.50;99.90;;;;;;4952717;28;20205;-78
2022/05/29 05:12:06;;;;;;;8.13;4.90;;;10.60;99.90;;;;;;4935750;29;20201;-79
2022/05/29 05:14:47;;;;;;;7.23;4.30;;;10.40;99.90;;;;;;4931557;29;20234;-79
2022/05/29 05:17:15;;;;;;;4.93;4.17;;;10.40;99.90;;;;;;4939321;29;20208;-79
2022/05/29 05:19:43;;;;;;;8.20;4.50;;;10.30;99.90;;;;;;4926626;29;20303;-78
2022/05/29 05:22:10;;;;;;;8.17;4.57;;;10.50;99.90;;;;;;4915319;29;20205;-79
2022/05/29 05:24:38;;;;;;;8.10;4.37;;;10.30;99.90;;;;;;4930904;29;20214;-79
2022/05/29 05:27:09;;;;;;;7.50;4.43;;;10.60;99.90;;;;;;4928514;29;20206;-79
2022/05/29 05:29:37;;;;;;;5.80;3.50;;;10.70;99.90;;;;;;4933831;29;20202;-78
2022/05/29 05:32:05;;;;;;;4.50;3.87;;;10.60;99.90;;;;;;4934301;29;20206;-78
2022/05/29 05:34:33;;;;;;;6.40;4.20;;;10.60;99.90;;;;;;4923086;29;20214;-79
2022/05/29 05:37:00;;;;;;;4.70;4.20;;;10.80;99.90;;;;;;4924152;29;20210;-79
2022/05/29 05:39:27;;;;;;;4.90;3.80;;;10.80;99.90;;;;;;4925854;29;20223;-79
2022/05/29 05:41:55;;;;;;;8.43;4.40;;;11.00;99.90;;;;;;4923751;29;20198;-79
2022/05/29 05:44:24;;;;;;;7.43;4.47;;;10.90;99.90;;;;;;4920097;29;20236;-79
2022/05/29 05:46:54;;;;;;;7.07;4.33;;;10.80;99.90;;;;;;4938978;29;20202;-78
2022/05/29 05:49:22;;;;;;;5.30;3.27;;;10.80;99.90;;;;;;4922374;29;20205;-79
2022/05/29 05:51:51;;;;;;;6.17;3.90;;;10.80;99.90;;;;;;4926925;29;20198;-79
2022/05/29 05:54:43;;;;;;;6.20;3.50;;;11.00;99.90;;;;;;4926749;29;20707;-79
2022/05/29 05:57:11;;;;;;;7.23;3.23;;;11.10;99.90;;;;;;4937122;29;20272;-79
2022/05/29 05:59:41;;;;;;;6.80;3.57;;;11.10;99.90;;;;;;4936946;29;20236;-79
2022/05/29 06:02:10;;;;;;;3.73;3.23;;;11.20;99.90;;;;;;4923917;29;20214;-80
2022/05/29 06:04:38;;;;;;;6.17;3.40;;;11.20;99.90;;;;;;4929728;29;20214;-79
2022/05/29 06:07:05;;;;;;;5.03;3.70;;;11.10;99.90;;;;;;4929575;29;20207;-79
2022/05/29 06:09:32;;;;;;;5.67;3.70;;;11.10;99.90;;;;;;4918811;29;20199;-79
2022/05/29 06:12:01;;;;;;;6.40;4.07;;;11.20;99.90;;;;;;4918536;29;20203;-79
2022/05/29 06:14:28;;;;;;;6.97;3.57;;;11.20;99.90;;;;;;4931009;29;20221;-79
2022/05/29 06:17:16;;;;;;;5.70;3.87;;;11.20;99.90;;;;;;4932542;29;20209;-79
2022/05/29 06:19:43;;;;;;;8.43;4.23;;;11.10;99.90;;;;;;4922592;29;21785;-79
2022/05/29 06:22:10;;;;;;;8.37;4.87;;;11.20;99.90;;;;;;4938326;29;20210;-79
2022/05/29 06:24:39;;;;;;;8.00;4.60;;;10.90;99.90;;;;;;4916115;29;20222;-79
2022/05/29 06:27:06;;;;;;;10.23;5.10;;;11.10;99.90;;;;;;4931596;29;20207;-79
2022/05/29 06:29:35;;;;;;;9.10;5.37;;;11.00;99.90;;;;;;4932648;29;20187;-80
2022/05/29 06:32:04;;;;;;;8.10;5.97;;;10.90;99.90;;;;;;4935264;29;20214;-80
2022/05/29 06:34:33;;;;;;;8.90;5.57;;;11.00;99.90;;;;;;4922314;29;20222;-79
2022/05/29 06:37:04;;;;;;;8.27;5.73;;;11.20;99.90;;;;;;4920171;29;20203;-80
2022/05/29 06:39:31;;;;;;;11.90;6.63;;;11.30;99.90;;;;;;4933876;29;20221;-78
2022/05/29 06:42:00;;;;;;;7.90;6.43;;;11.40;99.90;;;;;;4923260;29;20211;-80
2022/05/29 06:44:27;;;;;;;10.00;6.57;;;11.40;99.90;;;;;;4932401;29;20706;-79
2022/05/29 06:46:55;;;;;;;9.13;7.03;;;11.50;99.90;;;;;;4924758;29;20209;-79
2022/05/29 06:49:49;;;;;;;8.60;6.27;;;11.60;99.90;;;;;;4922852;29;20206;-79
2022/05/29 06:52:17;;;;;;;10.10;6.83;;;11.60;99.90;;;;;;4919638;29;20202;-79
2022/05/29 06:54:45;;;;;;;9.77;6.17;;;11.60;99.90;;;;;;4945356;28;20229;-79
2022/05/29 06:57:36;;;;;;;13.15;6.78;;;11.60;99.90;;;;;;4935434;29;20202;-80
2022/05/29 07:08:24;;;;;;;9.20;7.60;;;11.70;99.90;;;;;;4926891;29;20212;-78
2022/05/29 07:10:52;;;;;;;9.43;7.37;;;11.70;99.90;;;;;;4937949;29;20206;-79
2022/05/29 07:13:19;;;;;;;10.27;7.33;;;11.70;99.90;;;;;;4924904;29;20234;-78
2022/05/29 07:15:48;;;;;;;10.80;7.07;;;11.70;99.90;;;;;;4934712;29;20674;-79
2022/05/29 07:18:16;;;;;;;12.77;7.80;;;11.90;99.90;;;;;;4923765;29;20206;-80
2022/05/29 07:20:53;;;;;;;9.47;7.60;;;12.00;99.90;;;;;;4921170;29;20234;-80
2022/05/29 07:23:20;;;;;;;9.97;6.50;;;12.00;99.90;;;;;;4922109;29;20707;-80
2022/05/29 07:26:08;;;;;;;10.90;6.43;;;11.90;99.90;;;;;;4922736;29;20568;-80
2022/05/29 07:28:35;;;;;;;11.30;6.67;;;12.10;99.90;;;;;;4935657;29;20211;-80
2022/05/29 07:31:03;;;;;;;10.35;6.28;;;12.20;99.90;;;;;;4920094;29;20195;-80
2022/05/29 07:33:30;;;;;;;9.40;6.37;;;12.30;99.90;;;;;;4922758;29;20221;-80
2022/05/29 07:36:00;;;;;;;6.60;5.27;;;12.10;99.90;;;;;;4933236;29;20214;-80
2022/05/29 07:38:29;;;;;;;8.13;5.53;;;12.40;99.90;;;;;;4939415;29;20576;-80
2022/05/29 07:40:57;;;;;;;7.97;5.00;;;12.40;99.90;;;;;;4939372;29;20222;-79
2022/05/29 07:43:24;;;;;;;7.35;4.72;;;12.30;99.90;;;;;;4921859;29;20230;-80
2022/05/29 07:45:53;;;;;;;10.18;5.18;;;12.30;99.90;;;;;;4956450;23;20217;-77
2022/05/29 07:48:23;;;;;;;7.45;4.72;;;12.50;99.90;;;;;;4965926;28;20201;-77
2022/05/29 07:50:51;;;;;;;7.85;3.78;;;12.50;99.90;;;;;;4956760;28;20216;-76
2022/05/29 07:53:21;;;;;;;6.38;3.70;;;12.50;99.90;;;;;;4948062;28;20205;-76
2022/05/29 07:55:48;;;;;;;6.47;3.72;;;12.80;99.90;;;;;;4940367;28;20303;-76
2022/05/29 07:58:17;;;;;;;5.97;2.80;;;12.90;99.90;;;;;;4929702;29;20200;-76
2022/05/29 08:00:44;;;;;;;7.30;3.85;;;12.70;99.90;;;;;;4957261;28;20214;-76
2022/05/29 08:03:12;;;;;;;8.15;3.45;;;12.70;99.90;;;;;;4931720;28;20214;-76
2022/05/29 08:05:41;;;;;;;7.95;3.90;;;12.90;99.90;;;;;;4945197;29;20302;-76
2022/05/29 08:08:31;;;;;;;5.22;3.10;;;13.00;99.90;;;;;;4929456;28;20667;-77
2022/05/29 08:10:59;;;;;;;6.85;3.13;;;12.80;99.90;;;;;;4928728;28;20195;-78
2022/05/29 08:13:29;;;;;;;8.10;3.42;;;12.70;99.90;;;;;;4942161;28;20197;-77
2022/05/29 08:15:56;;;;;;;5.30;3.08;;;13.00;99.90;;;;;;4934222;28;20221;-77
2022/05/29 08:18:25;;;;;;;6.97;2.75;;;13.10;99.90;;;;;;4948327;28;20201;-78
2022/05/29 08:20:53;;;;;;;4.70;2.75;;;13.20;99.90;;;;;;4955488;28;20209;-77
2022/05/29 08:23:20;;;;;;;8.10;2.90;;;13.20;99.90;;;;;;4923398;29;20224;-77
2022/05/29 08:31:22;;;;;;;8.00;2.60;;;13.60;99.90;;;;;;4941038;28;20189;-77
2022/05/29 08:33:49;;;;;;;5.68;2.00;;;13.50;99.90;;;;;;4946944;28;20217;-77
2022/05/29 08:36:22;;;;;;;4.82;2.25;;;13.30;99.90;;;;;;4931321;29;20228;-77
2022/05/29 08:38:52;;;;;;;4.28;2.95;;;13.40;99.90;;;;;;4933533;28;20699;-77
2022/05/29 08:41:35;;;;;;;5.05;2.22;;;13.30;99.90;;;;;;4935261;29;20225;-77
2022/05/29 08:44:07;;;;;;;6.85;2.38;;;13.20;99.90;;;;;;4930507;28;20199;-78
2022/05/29 08:46:52;;;;;;;5.85;2.20;;;13.30;99.90;;;;;;4937504;29;20702;-78
2022/05/29 08:49:24;;;;;;;3.05;2.10;;;13.60;99.90;;;;;;4944377;29;20193;-78
2022/05/29 08:52:10;;;;;;;4.22;2.40;;;13.70;99.90;;;;;;4955879;28;20201;-78
2022/05/29 08:54:49;;;;;;;4.72;2.38;;;13.70;99.90;;;;;;4936314;28;20713;-78
2022/05/29 08:57:37;;;;;;;5.25;1.95;;;13.90;99.90;;;;;;4948675;28;20231;-78
2022/05/29 09:00:13;;;;;;;3.38;1.75;;;13.80;99.90;;;;;;4934852;29;20209;-78
2022/05/29 09:02:53;;;;;;;5.82;1.88;;;14.00;99.90;;;;;;4928455;29;20711;-78
2022/05/29 09:05:28;;;;;;;4.75;1.80;;;13.90;99.90;;;;;;4951137;28;20240;-77
2022/05/29 09:08:01;;;;;;;4.32;2.40;;;13.50;99.90;;;;;;4934045;28;20205;-77
2022/05/29 09:10:39;;;;;;;5.70;2.47;;;13.40;99.90;;;;;;4925828;29;20202;-78
2022/05/29 09:13:15;;;;;;;7.28;2.55;;;13.30;99.90;;;;;;4936275;28;20206;-78
2022/05/29 09:15:45;;;;;;;5.82;2.38;;;13.50;99.90;;;;;;4933767;29;20225;-78
2022/05/29 09:18:18;;;;;;;5.22;2.30;;;13.30;99.90;;;;;;4932616;29;20201;-78
2022/05/29 09:20:51;;;;;;;3.17;1.70;;;13.10;99.90;;;;;;4942593;28;20217;-77
2022/05/29 09:23:25;;;;;;;4.18;1.60;;;12.90;99.90;;;;;;4934778;28;20209;-77
2022/05/29 09:25:55;;;;;;;4.18;1.90;;;12.70;99.90;;;;;;4934587;28;20416;-77
2022/05/29 09:28:30;;;;;;;3.97;1.83;;;12.70;99.90;;;;;;4935106;28;20208;-78
2022/05/29 09:31:07;;;;;;;3.47;1.20;;;12.80;99.90;;;;;;4953238;28;20185;-78
2022/05/29 09:33:36;;;;;;;2.53;1.38;;;12.70;99.90;;;;;;4929762;29;20220;-78
2022/05/29 09:36:25;;;;;;;2.40;1.52;;;12.60;99.90;;;;;;4972141;28;20217;-78
2022/05/29 09:38:56;;;;;;;4.38;1.63;;;12.40;99.90;;;;;;4947749;28;20197;-78
2022/05/29 09:41:30;;;;;;;3.47;1.92;;;12.50;99.90;;;;;;4945038;28;20228;-78
2022/05/29 09:44:12;;;;;;;3.92;2.42;;;12.60;99.90;;;;;;4945144;28;20211;-78
2022/05/29 09:46:41;;;;;;;3.00;1.48;;;12.80;99.90;;;;;;4952364;29;20655;-78
2022/05/29 09:52:07;;;;;;;1.60;1.50;;;13.20;99.90;;;;;;4950651;28;20552;-78
2022/05/29 09:54:37;;;;;;;3.25;1.10;;;13.50;99.90;;;;;;4933787;29;20221;-78
2022/05/29 09:57:11;;;;;;;2.38;1.55;;;13.50;99.90;;;;;;4926336;28;20206;-78
2022/05/29 09:59:45;;;;;;;2.95;1.70;;;13.80;99.90;;;;;;4931450;29;20202;-78
2022/05/29 10:02:24;;;;;;;2.70;1.40;;;13.60;99.90;;;;;;4928038;29;20217;-78
2022/05/29 10:05:38;;;;;;;3.28;1.40;;;14.00;99.90;;;;;;4932567;28;20306;-78
2022/05/29 10:08:19;;;;;;;2.53;1.35;;;14.10;99.90;;;;;;4941489;28;20216;-78
2022/05/29 10:10:46;;;;;;;2.00;1.17;;;14.10;99.90;;;;;;4941932;28;20190;-79
2022/05/29 10:13:37;;;;;;;4.45;2.15;;;14.10;99.90;;;;;;4931165;29;20735;-78
2022/05/29 10:16:07;;;;;;;4.78;3.13;;;14.40;99.90;;;;;;4934610;28;20229;-78
2022/05/29 10:18:36;;;;;;;2.42;1.88;;;14.50;99.90;;;;;;4943837;28;20201;-79
2022/05/29 10:21:15;;;;;;;2.28;2.00;;;14.50;99.90;;;;;;4964538;28;20216;-79
2022/05/29 10:23:49;;;;;;;3.78;1.40;;;14.40;99.90;;;;;;4941190;29;20217;-80
2022/05/29 10:26:31;;;;;;;4.15;1.98;;;14.10;99.90;;;;;;4940928;29;20225;-80
2022/05/29 10:29:00;;;;;;;3.60;1.70;;;13.90;99.90;;;;;;4936387;29;20210;-79
2022/05/29 10:31:35;;;;;;;3.63;1.55;;;13.40;99.90;;;;;;4940314;29;20206;-79
2022/05/29 10:34:08;;;;;;;4.00;1.98;;;13.70;99.90;;;;;;4925552;29;20224;-78
2022/05/29 10:36:37;;;;;;;3.28;2.15;;;13.60;99.90;;;;;;4922117;29;20214;-80
2022/05/29 10:39:09;;;;;;;3.78;2.20;;;13.70;99.90;;;;;;4942184;28;20569;-80
2022/05/29 10:41:39;;;;;;;2.70;1.90;;;13.70;99.90;;;;;;4938016;29;20605;-80
2022/05/29 10:44:10;;;;;;;3.25;1.83;;;13.80;99.90;;;;;;4944204;28;20574;-80
2022/05/29 10:46:45;;;;;;;4.38;1.98;;;13.80;99.90;;;;;;4942580;29;20241;-80
2022/05/29 10:49:26;;;;;;;3.47;1.98;;;13.80;99.90;;;;;;4956829;28;20193;-81
2022/05/29 10:52:21;;;;;;;1.80;1.52;;;13.90;99.90;;;;;;4931836;28;20198;-79
2022/05/29 10:55:16;;;;;;;1.88;1.50;;;13.90;99.90;;;;;;4944107;28;20216;-79
2022/05/29 10:58:09;;;;;;;2.55;1.95;;;14.00;99.90;;;;;;4932100;29;20205;-78
2022/05/29 11:00:59;;;;;;;4.45;2.53;;;14.10;99.90;;;;;;4955303;28;20194;-79
2022/05/29 11:03:46;;;;;;;5.03;2.75;;;14.30;99.90;;;;;;4948821;28;20205;-79
2022/05/29 11:06:34;;;;;;;5.35;2.40;;;14.10;99.90;;;;;;4943254;29;20221;-78
2022/05/29 11:09:43;;;;;;;3.95;2.50;;;14.00;99.90;;;;;;4956785;29;20178;-78
2022/05/29 11:12:21;;;;;;;3.65;2.40;;;13.70;99.90;;;;;;4946767;28;20204;-78
2022/05/29 11:15:08;;;;;;;2.25;1.92;;;13.90;99.90;;;;;;4933332;28;20222;-78
2022/05/29 11:17:47;;;;;;;4.03;2.40;;;13.80;99.90;;;;;;4940128;29;20198;-78
2022/05/29 11:20:43;;;;;;;3.53;2.08;;;14.00;99.90;;;;;;4955832;28;20197;-79
2022/05/29 11:23:25;;;;;;;3.67;2.08;;;14.00;99.90;;;;;;4939884;28;20210;-80
2022/05/29 11:26:00;;;;;;;4.18;2.35;;;13.80;99.90;;;;;;4939415;28;20230;-81
2022/05/29 11:28:52;;;;;;;3.78;2.42;;;13.60;99.90;;;;;;4946517;28;20197;-80
2022/05/29 11:31:35;;;;;;;5.30;2.42;;;13.70;99.90;;;;;;4947850;28;20205;-79
2022/05/29 11:34:26;;;;;;;3.45;1.60;;;13.60;99.90;;;;;;4962209;28;20204;-79
2022/05/29 11:37:20;;;;;;;5.85;1.90;;;13.50;99.90;;;;;;4947728;28;20195;-79
2022/05/29 11:39:53;;;;;;;2.85;1.15;;;13.50;99.90;;;;;;4940784;28;20209;-78
2022/05/29 11:42:26;;;;;;;1.40;0.98;;;13.70;99.90;;;;;;4959289;28;20222;-80
2022/05/29 11:45:01;;;;;;;2.88;1.27;;;13.80;99.90;;;;;;4967656;28;20222;-78
2022/05/29 11:53:24;;;;;;;2.15;1.00;;;14.10;99.90;;;;;;4938085;28;20205;-79
2022/05/29 11:55:55;;;;;;;1.42;1.05;;;14.20;99.90;;;;;;4936099;28;20217;-79
2022/05/29 11:58:34;;;;;;;1.63;0.77;;;14.20;99.90;;;;;;4939967;29;20212;-79
2022/05/29 12:01:07;;;;;;;3.42;1.95;;;14.10;99.90;;;;;;4951169;28;20198;-79
2022/05/29 12:03:44;;;;;;;3.92;1.70;;;14.10;99.90;;;;;;4941801;29;20225;-78
2022/05/29 12:06:15;;;;;;;2.25;1.27;;;14.00;99.90;;;;;;4951857;28;20224;-78
2022/05/29 12:09:24;;;;;;;3.70;1.08;;;14.00;99.90;;;;;;4942107;28;20197;-79
2022/05/29 12:11:59;;;;;;;3.42;1.23;;;14.10;99.90;;;;;;4938434;28;20696;-78
2022/05/29 12:14:32;;;;;;;1.98;1.10;;;14.10;99.90;;;;;;4935573;28;20558;-78
2022/05/29 12:17:07;;;;;;;3.55;1.08;;;14.20;99.90;;;;;;4932817;28;20209;-78
2022/05/29 12:19:40;;;;;;;2.92;1.48;;;14.30;99.90;;;;;;4944669;28;20209;-78
2022/05/29 12:22:10;;;;;;;2.83;1.40;;;14.50;99.90;;;;;;4934160;28;20220;-78
2022/05/29 12:24:42;;;;;;;5.00;1.50;;;14.70;99.90;;;;;;4940194;29;20234;-78
2022/05/29 12:27:14;;;;;;;2.92;1.70;;;14.90;99.90;;;;;;4960682;28;20204;-80
2022/05/29 12:29:47;;;;;;;4.22;3.00;;;14.80;99.90;;;;;;4954947;28;20201;-79
2022/05/29 12:32:20;;;;;;;3.97;1.25;;;14.90;99.90;;;;;;4930656;29;20201;-78
2022/05/29 12:34:53;;;;;;;2.63;1.50;;;15.00;99.90;;;;;;4953118;28;20217;-79
2022/05/29 12:37:52;;;;;;;4.68;1.58;;;15.20;99.90;;;;;;4947522;28;20198;-79
2022/05/29 12:40:35;;;;;;;4.65;2.20;;;15.70;99.90;;;;;;4941510;28;20209;-79
2022/05/29 12:43:48;;;;;;;3.80;2.25;;;15.90;99.90;;;;;;4956376;28;20676;-79
2022/05/29 12:46:30;;;;;;;4.32;1.77;;;16.30;99.90;;;;;;4851687;29;20240;-79
2022/05/29 12:49:30;;;;;;;2.95;2.03;;;16.20;98.90;;;;;;4843544;29;20205;-80
2022/05/29 12:52:14;;;;;;;2.05;1.63;;;16.70;99.90;;;;;;4925979;28;20194;-80
2022/05/29 12:55:33;;;;;;;4.05;1.60;;;16.60;99.80;;;;;;4955116;28;20213;-80
2022/05/29 12:58:31;;;;;;;2.47;1.65;;;16.50;99.80;;;;;;4866601;29;20652;-81
2022/05/29 13:01:12;;;;;;;4.20;1.63;;;16.10;99.90;;;;;;4856446;29;20209;-80
2022/05/29 13:04:07;;;;;;;4.05;1.58;;;16.50;99.70;;;;;;4926408;29;20238;-80
2022/05/29 13:07:05;;;;;;;2.40;1.65;;;16.40;98.60;;;;;;4950087;28;20202;-79
2022/05/29 13:09:51;;;;;;;3.65;1.95;;;15.80;99.90;;;;;;4932727;29;20209;-78
2022/05/29 13:12:25;;;;;;;5.22;2.70;;;15.70;99.90;;;;;;4955286;28;20213;-78
2022/05/29 13:14:57;;;;;;;3.33;1.80;;;15.20;99.90;;;;;;4958131;28;20225;-78
2022/05/29 13:17:29;;;;;;;4.18;1.92;;;14.90;99.90;;;;;;4947573;28;20192;-78
2022/05/29 13:20:03;;;;;;;4.00;2.20;;;14.90;99.90;;;;;;4937299;28;20198;-78
2022/05/29 13:22:56;;;;;;;6.22;2.50;;;14.90;99.90;;;;;;4937117;29;20214;-78
2022/05/29 13:25:27;;;;;;;4.97;2.03;;;14.70;99.90;;;;;;4926907;28;20224;-78
2022/05/29 13:27:56;;;;;;;7.13;2.15;;;14.90;99.90;;;;;;4939932;28;20574;-78
2022/05/29 13:31:03;;;;;;;6.20;2.35;;;15.20;99.90;;;;;;4932540;29;20205;-78
2022/05/29 13:33:53;;;;;;;5.45;2.58;;;14.90;99.90;;;;;;4930534;29;20201;-78
2022/05/29 13:37:04;;;;;;;5.53;2.45;;;15.10;99.90;;;;;;4940733;29;20218;-78
2022/05/29 13:39:38;;;;;;;4.40;2.40;;;15.10;99.90;;;;;;4932226;29;20202;-78
2022/05/29 13:42:23;;;;;;;5.57;2.67;;;15.20;99.90;;;;;;4935279;28;20220;-78
2022/05/29 13:44:50;;;;;;;5.13;2.65;;;15.00;99.90;;;;;;4976223;23;20229;-79
2022/05/29 13:47:45;;;;;;;8.40;2.80;;;15.00;99.90;;;;;;4946189;28;20205;-78
2022/05/29 13:50:34;;;;;;;3.88;2.80;;;14.50;99.90;;;;;;4939724;29;20213;-78
2022/05/29 13:53:05;;;;;;;2.33;1.80;;;14.60;99.90;;;;;;4940803;29;20229;-78
2022/05/29 13:55:56;;;;;;;6.78;2.85;;;14.60;99.90;;;;;;4935953;28;20221;-78
2022/05/29 14:04:34;;;;;;;6.85;2.85;;;14.70;99.90;;;;;;4938052;29;20691;-78